Terminal Aerodrome Forecast
Issued by NWS Cheyenne, WY

Home | Current Version | Previous Version | Text Only | Print | Product List | Glossary On
Versions: 1 2 3 4 5 6 7 8 9 10 11 12 13 14 15 16 17 18 19 20 21 22 23 24 25 26 27 28 29 30 31 32 33 34 35 36 37 38 39
000
FTUS45 KCYS 271700
TAFCYS
TAF
KCYS 271727Z 2718/2818 30008KT P6SM VCTS BKN040CB
      TEMPO 2718/2722 3SM TSRA BKN025CB
     FM280300 31007KT P6SM VCSH BKN040 OVC100
     FM281500 31012G18KT P6SM OVC100=

USA.gov is the U.S. government's official web portal to all federal, state and local government web resources and services.